Arickaree, Colorado
Current Conditions -  °F | °C
As of 2:55 PM on Tuesday 21 Oct 2014 (Local Time) from KLIC Reporting Station
Clear Clear  
Wind Chill: 72°   Ceiling: Unl
Heat Index: 72°   Visibility: 10mi
Dew Point: 37°   Wind: 16mph
Humidity: 28%   Direction: 180°S
Pressure: 29.98"   Gusts: 25mph
Location:  39.6673°N, 103.47°W
Report Text: KLIC 212055Z AUTO 18014G22KT 10SM CLR 22/03 A2998 RMK AO2 SLP100 T02220028 56019
Loading
Personal Weather Stations






























Interactive Weather Map
Tropical Storm Tracking
New forecast layout! Learn more

10-Day Weather Forecast

Advertisements
Track Severe Weather on mobile